Data for 08/19/2016

Time Sea-Level Adjusted Pressure Absolute Pressure Temperature Relative Humidity Dew Point   
(mb) (inHg) (mb) (inHg) (C) (F) (%) (C) (F)
00:05 1024 30.24 853 25.19 11.1 52.1 87 9.1 48.3
00:10 1024 30.24 853 25.19 10.8 51.5 88 8.9 48
00:15 1024 30.24 853 25.19 10.5 50.9 88 8.6 47.5
00:20 1024 30.24 854 25.22 10.2 50.4 89 8.5 47.2
00:25 1025 30.27 854 25.22 10.1 50.1 89 8.3 46.9
00:30 1025 30.27 854 25.22 9.9 49.7 89 8.1 46.7
00:35 1025 30.27 854 25.22 9.5 49 88 7.6 45.6
00:40 1025 30.27 854 25.22 9.2 48.6 88 7.4 45.3
00:45 1025 30.27 854 25.22 9.1 48.3 89 7.4 45.4
00:50 1025 30.27 854 25.22 8.7 47.7 91 7.3 45.1
00:55 1025 30.27 854 25.22 8.3 47 91 7 44.6
01:00 1025 30.27 854 25.22 8.2 46.8 92 6.9 44.5
01:05 1025 30.27 854 25.22 8.3 46.9 92 7.1 44.8
01:10 1025 30.27 854 25.22 8.5 47.4 92 7.4 45.3
01:15 1025 30.27 854 25.22 8.7 47.7 92 7.5 45.5
01:20 1025 30.27 854 25.22 8.5 47.2 92 7.2 45
01:25 1025 30.27 854 25.22 8.1 46.7 91 6.8 44.3
01:30 1025 30.27 854 25.22 8 46.4 92 6.7 44.1
01:35 1025 30.27 854 25.22 8.1 46.5 91 6.7 44.1
01:40 1025 30.27 854 25.22 8.1 46.5 91 6.7 44.1
01:45 1025 30.27 855 25.25 8.1 46.6 91 6.7 44.1
01:50 1026 30.3 855 25.25 8 46.5 91 6.7 44
01:55 1026 30.3 855 25.25 8.1 46.5 91 6.7 44
02:00 1026 30.3 855 25.25 8.1 46.7 91 6.7 44
02:05 1026 30.3 855 25.25 8.1 46.7 91 6.7 44
02:10 1026 30.3 855 25.25 8 46.4 91 6.6 43.8
02:15 1026 30.3 856 25.28 7.9 46.2 91 6.6 43.8
02:20 1026 30.3 855 25.25 7.9 46.2 91 6.5 43.7
02:25 1026 30.3 855 25.25 7.9 46.1 91 6.5 43.7
02:30 1026 30.3 855 25.25 7.9 46.1 91 6.5 43.7
02:35 1026 30.3 855 25.25 7.8 46 91 6.4 43.5
02:40 1026 30.3 855 25.25 7.8 46 90 6.3 43.4
02:45 1026 30.3 855 25.25 7.8 46 90 6.3 43.4
02:50 1026 30.3 856 25.28 7.8 46.1 91 6.4 43.5
02:55 1026 30.3 855 25.25 7.9 46.2 90 6.3 43.4
03:00 1026 30.3 855 25.25 7.9 46.2 90 6.4 43.5
03:05 1026 30.3 855 25.25 7.9 46.2 90 6.3 43.4
03:10 1026 30.3 855 25.25 7.9 46.2 89 6.2 43.2
03:15 1026 30.3 855 25.25 7.9 46.2 90 6.3 43.3
03:20 1026 30.3 855 25.25 7.8 46.1 90 6.2 43.2
03:25 1026 30.3 855 25.25 7.8 46 90 6.2 43.2
03:30 1026 30.3 855 25.25 7.8 46 90 6.2 43.2
03:35 1026 30.3 855 25.25 7.7 45.8 90 6.1 43.1
03:40 1026 30.3 855 25.25 7.7 45.9 90 6.2 43.1
03:45 1026 30.3 855 25.25 7.7 45.9 90 6.2 43.1
03:50 1026 30.3 855 25.25 7.8 46 90 6.3 43.3
03:55 1026 30.3 855 25.25 7.9 46.2 90 6.4 43.6
04:00 1026 30.3 855 25.25 7.8 46.1 91 6.4 43.6
04:05 1026 30.3 855 25.25 7.8 46 91 6.3 43.4
04:10 1026 30.3 855 25.25 7.8 46 91 6.4 43.5
04:15 1026 30.3 855 25.25 7.8 46 91 6.4 43.6
04:20 1026 30.3 855 25.25 7.8 46 91 6.4 43.6
04:25 1026 30.3 855 25.25 7.7 45.8 92 6.4 43.5
04:30 1026 30.3 855 25.25 7.6 45.7 92 6.4 43.5
04:35 1026 30.3 855 25.25 7.6 45.6 92 6.3 43.4
04:40 1026 30.3 855 25.25 7.5 45.6 92 6.3 43.3
04:45 1026 30.3 855 25.25 7.6 45.6 92 6.4 43.5
04:50 1026 30.3 855 25.25 7.6 45.6 92 6.3 43.4
04:55 1026 30.3 855 25.25 7.6 45.7 92 6.4 43.5
05:00 1026 30.3 855 25.25 7.6 45.7 92 6.4 43.5
05:05 1026 30.3 855 25.25 7.7 45.8 92 6.4 43.5
05:10 1026 30.3 855 25.25 7.6 45.7 91 6.3 43.3
05:15 1026 30.3 855 25.25 7.7 45.8 92 6.4 43.5
05:20 1026 30.3 855 25.25 7.7 45.8 91 6.3 43.4
05:25 1026 30.3 855 25.25 7.6 45.7 91 6.2 43.2
05:30 1026 30.3 855 25.25 7.7 45.8 91 6.3 43.3
05:35 1026 30.3 855 25.25 7.7 45.8 91 6.3 43.3
05:40 1026 30.3 855 25.25 7.7 45.9 91 6.3 43.4
05:45 1026 30.3 855 25.25 7.7 45.9 91 6.3 43.4
05:50 1026 30.3 855 25.25 7.7 45.8 91 6.2 43.2
05:55 1026 30.3 855 25.25 7.7 45.9 91 6.3 43.3
06:00 1026 30.3 855 25.25 7.7 45.8 90 6.2 43.2
06:05 1026 30.3 855 25.25 7.7 45.8 91 6.3 43.3
06:10 1026 30.3 855 25.25 7.7 45.9 90 6.3 43.3
06:15 1026 30.3 855 25.25 7.8 46.1 89 6.2 43.1
06:20 1026 30.3 856 25.28 7.9 46.2 89 6.2 43.2
06:25 1026 30.3 855 25.25 7.9 46.2 88 6 42.9
06:30 1026 30.3 856 25.28 7.9 46.3 87 6 42.8
06:35 1026 30.3 856 25.28 8 46.4 88 6.1 43
06:40 1026 30.3 856 25.28 8 46.5 88 6.2 43.1
06:45 1026 30.3 856 25.28 8.1 46.5 88 6.2 43.2
06:50 1027 30.33 856 25.28 8.1 46.6 87 6.1 43
06:55 1027 30.33 856 25.28 8.1 46.7 88 6.2 43.2
07:00 1027 30.33 856 25.28 8.3 46.9 87 6.3 43.3
07:05 1027 30.33 856 25.28 8.1 46.6 86 5.9 42.6
07:10 1027 30.33 856 25.28 8.2 46.8 86 6 42.9
07:15 1027 30.33 856 25.28 8.2 46.8 84 5.7 42.2
07:20 1027 30.33 856 25.28 8.2 46.8 86 6 42.7
07:25 1027 30.33 856 25.28 8.2 46.8 85 5.8 42.4
07:30 1027 30.33 856 25.28 8.2 46.8 85 5.9 42.6
07:35 1027 30.33 856 25.28 8.3 46.9 83 5.6 42
07:40 1027 30.33 856 25.28 8.3 47 84 5.8 42.4
07:45 1027 30.33 856 25.28 8.3 47 85 6 42.8
07:50 1027 30.33 856 25.28 8.3 47 86 6.1 43
07:55 1027 30.33 856 25.28 8.3 47 86 6.1 42.9
08:00 1027 30.33 856 25.28 8.3 47 85 5.9 42.6
08:05 1027 30.33 856 25.28 8.4 47.1 83 5.6 42.1
08:10 1027 30.33 856 25.28 8.5 47.2 83 5.8 42.5
08:15 1027 30.33 856 25.28 8.5 47.4 85 6.1 43.1
08:20 1027 30.33 856 25.28 8.7 47.6 86 6.5 43.6
08:25 1027 30.33 856 25.28 8.8 47.8 83 6 42.8
08:30 1027 30.33 856 25.28 8.8 47.9 80 5.5 41.9
08:35 1027 30.33 856 25.28 8.8 47.9 81 5.9 42.5
08:40 1027 30.33 856 25.28 8.9 47.9 82 6 42.9
08:45 1027 30.33 856 25.28 9 48.2 81 5.9 42.7
08:50 1027 30.33 856 25.28 9.4 48.9 82 6.4 43.5
08:55 1027 30.33 856 25.28 9.6 49.4 80 6.5 43.6
09:00 1027 30.33 856 25.28 9.5 49.2 81 6.5 43.7
09:05 1027 30.33 856 25.28 9.5 49.1 79 6.1 42.9
09:10 1027 30.33 856 25.28 9.6 49.2 78 6 42.8
09:15 1027 30.33 856 25.28 9.6 49.2 78 5.9 42.7
09:20 1027 30.33 856 25.28 9.5 49 79 6 42.8
09:25 1027 30.33 856 25.28 9.5 49 79 5.9 42.7
09:30 1027 30.33 856 25.28 9.4 48.8 79 5.9 42.6
09:35 1027 30.33 856 25.28 9.3 48.7 80 6.1 42.9
09:40 1027 30.33 856 25.28 9.3 48.7 79 5.8 42.5
09:45 1027 30.33 856 25.28 9.4 48.8 79 5.9 42.5
09:50 1027 30.33 856 25.28 9.4 48.8 79 5.9 42.7
09:55 1027 30.33 856 25.28 9.4 49 77 5.7 42.3
10:00 1027 30.33 856 25.28 9.3 48.7 77 5.5 42
10:05 1027 30.33 856 25.28 9.2 48.5 78 5.5 41.9
10:10 1027 30.33 856 25.28 9.1 48.4 76 5.2 41.4
10:15 1027 30.33 856 25.28 9.1 48.4 76 5.1 41.2
10:20 1027 30.33 856 25.28 9.2 48.5 74 4.9 40.8
10:25 1027 30.33 856 25.28 9.2 48.6 73 4.7 40.4
10:30 1027 30.33 856 25.28 9.3 48.7 72 4.5 40.2
10:35 1027 30.33 856 25.28 9.4 49 72 4.7 40.5
10:40 1027 30.33 856 25.28 9.6 49.4 70 4.5 40.1
10:45 1027 30.33 856 25.28 9.8 49.7 69 4.5 40.1
10:50 1027 30.33 856 25.28 10.1 50.2 67 4.4 39.9
10:55 1027 30.33 856 25.28 10.5 50.9 66 4.5 40.1
11:00 1027 30.33 856 25.28 10.7 51.3 64 4.3 39.7
11:05 1027 30.33 856 25.28 10.9 51.6 63 4.3 39.7
11:10 1027 30.33 857 25.31 11.3 52.4 64 4.8 40.7
11:15 1027 30.33 857 25.31 11.2 52.2 61 4.1 39.4
11:20 1027 30.33 857 25.31 11.2 52.2 63 4.4 39.9
11:25 1027 30.33 857 25.31 11.5 52.7 62 4.4 40
11:30 1027 30.33 857 25.31 11.4 52.6 60 4 39.2
11:35 1027 30.33 857 25.31 12.3 54.1 55 3.6 38.4
11:40 1027 30.33 857 25.31 13.5 56.2 53 4.1 39.5
11:45 1027 30.33 857 25.31 12.9 55.2 56 4.4 39.9
11:50 1027 30.33 856 25.28 12.4 54.4 55 3.7 38.6
11:55 1027 30.33 856 25.28 12.7 54.8 53 3.4 38.2
12:00 1027 30.33 856 25.28 13.2 55.8 52 3.7 38.6
12:05 1027 30.33 856 25.28 13.3 56 53 3.9 39
12:10 1027 30.33 856 25.28 12.8 55.1 53 3.6 38.5
12:15 1027 30.33 856 25.28 13.4 56.2 52 3.8 38.8
12:20 1027 30.33 856 25.28 13.8 56.9 51 4 39.1
12:25 1027 30.33 856 25.28 13.9 57.1 49 3.5 38.4
12:30 1027 30.33 856 25.28 13.4 56.1 51 3.6 38.5
12:35 1027 30.33 856 25.28 14.6 58.2 47 3.6 38.4
12:40 1027 30.33 856 25.28 14.4 57.9 50 4.2 39.6
12:45 1027 30.33 856 25.28 13.2 55.7 53 3.8 38.8
12:50 1027 30.33 856 25.28 12.8 55.1 55 4.1 39.3
12:55 1027 30.33 856 25.28 13.1 55.6 54 4 39.3
13:00 1027 30.33 856 25.28 13.2 55.8 52 3.6 38.5
13:05 1027 30.33 856 25.28 13.7 56.6 48 3 37.4
13:10 1027 30.33 856 25.28 15.2 59.3 44 3.2 37.8
13:15 1027 30.33 856 25.28 16.3 61.3 43 3.7 38.7
13:20 1027 30.33 856 25.28 16.8 62.3 38 2.4 36.3
13:25 1026 30.3 856 25.28 16.5 61.7 41 3.5 38.2
13:30 1026 30.3 856 25.28 16.4 61.6 42 3.7 38.7
13:35 1026 30.3 856 25.28 16.1 61 42 3.4 38.2
13:40 1026 30.3 856 25.28 15.2 59.3 47 4 39.1
13:45 1026 30.3 856 25.28 14.2 57.6 49 3.6 38.5
13:50 1026 30.3 856 25.28 14.6 58.3 46 3.1 37.6
13:55 1026 30.3 856 25.28 15.4 59.7 44 3.5 38.2
14:00 1026 30.3 856 25.28 15.9 60.6 42 3.2 37.7
14:05 1026 30.3 856 25.28 15.6 60 44 3.6 38.4
14:10 1026 30.3 856 25.28 15 59.1 47 4 39.3
14:15 1026 30.3 856 25.28 15.4 59.8 43 2.9 37.2
14:20 1026 30.3 856 25.28 16.1 60.9 43 3.5 38.3
14:25 1026 30.3 856 25.28 15.7 60.3 42 2.9 37.2
14:30 1026 30.3 855 25.25 17.1 62.8 36 1.9 35.3
14:35 1026 30.3 855 25.25 17.1 62.7 37 2.3 36.1
14:40 1026 30.3 855 25.25 16.8 62.3 38 2.4 36.4
14:45 1026 30.3 855 25.25 17.5 63.5 35 1.9 35.4
14:50 1026 30.3 855 25.25 18.1 64.7 34 2.1 35.8
14:55 1026 30.3 855 25.25 18.2 64.8 34 2.2 36
15:00 1026 30.3 855 25.25 17.4 63.4 38 3 37.3
15:05 1026 30.3 855 25.25 17.9 64.3 34 1.9 35.4
15:10 1026 30.3 855 25.25 18.4 65.2 33 1.8 35.3
15:15 1026 30.3 855 25.25 18.8 65.8 32 1.9 35.5
15:20 1026 30.3 855 25.25 18.1 64.5 34 2.2 36
15:25 1026 30.3 855 25.25 17.5 63.5 35 1.9 35.4
15:30 1026 30.3 855 25.25 17.3 63.1 36 2.2 35.9
15:35 1026 30.3 855 25.25 17.7 63.9 35 2.1 35.9
15:40 1026 30.3 855 25.25 17.9 64.2 34 1.9 35.4
15:45 1025 30.27 855 25.25 18.5 65.3 33 2.1 35.7
15:50 1025 30.27 855 25.25 17.8 64.1 34 1.8 35.3
15:55 1025 30.27 855 25.25 17.7 63.9 34 1.9 35.4
16:00 1025 30.27 854 25.22 17.4 63.3 34 1.4 34.5
16:05 1025 30.27 854 25.22 17.6 63.6 34 1.6 34.9
16:10 1025 30.27 854 25.22 17.8 64 35 2.4 36.4
16:15 1025 30.27 854 25.22 18.2 64.8 34 2.2 36
16:20 1025 30.27 854 25.22 18.4 65.1 34 2.6 36.7
16:25 1025 30.27 854 25.22 18.1 64.5 35 2.5 36.5
16:30 1025 30.27 854 25.22 17.9 64.2 34 2.1 35.8
16:35 1025 30.27 854 25.22 18 64.4 33 1.6 34.8
16:40 1025 30.27 854 25.22 18.9 66 32 1.8 35.3
16:45 1025 30.27 854 25.22 18.5 65.3 34 2.5 36.4
16:50 1025 30.27 854 25.22 18.8 65.8 31 1.6 34.8
16:55 1025 30.27 854 25.22 19.1 66.3 30 1.4 34.5
17:00 1025 30.27 854 25.22 18.7 65.6 33 2.1 35.7
17:05 1025 30.27 854 25.22 18.6 65.5 32 1.8 35.3
17:10 1025 30.27 854 25.22 19.2 66.6 31 1.7 35
17:15 1025 30.27 854 25.22 18.7 65.7 32 1.8 35.3
17:20 1025 30.27 854 25.22 19 66.1 31 1.6 34.9
17:25 1024 30.24 854 25.22 18.6 65.4 33 2.1 35.9
17:30 1024 30.24 854 25.22 17.6 63.7 36 2.4 36.3
17:35 1024 30.24 854 25.22 17.2 62.9 35 1.8 35.3
17:40 1024 30.24 854 25.22 17.6 63.6 33 1.3 34.3
17:45 1024 30.24 854 25.22 18.2 64.8 34 2.1 35.9
17:50 1024 30.24 853 25.19 18 64.3 34 2 35.7
17:55 1024 30.24 853 25.19 18.1 64.6 32 1.5 34.7
18:00 1024 30.24 853 25.19 17.7 63.9 34 1.8 35.3
18:05 1024 30.24 853 25.19 18 64.3 33 1.8 35.2
18:10 1024 30.24 853 25.19 17.5 63.4 35 1.9 35.4
18:15 1024 30.24 853 25.19 18 64.4 33 1.7 35
18:20 1024 30.24 853 25.19 18.5 65.2 33 1.9 35.5
18:25 1024 30.24 853 25.19 18.5 65.2 34 2.3 36.2
18:30 1024 30.24 853 25.19 18.4 65.2 33 2.2 35.9
18:35 1024 30.24 853 25.19 18.4 65.1 33 2 35.6
18:40 1024 30.24 853 25.19 18.4 65 33 2 35.6
18:45 1024 30.24 853 25.19 17.8 64 35 2.3 36.2
18:50 1024 30.24 853 25.19 16.9 62.5 38 2.5 36.5
18:55 1024 30.24 853 25.19 17 62.6 38 2.7 36.8
19:00 1024 30.24 853 25.19 17.1 62.8 39 3 37.4
19:05 1024 30.24 853 25.19 17.1 62.7 38 2.9 37.1
19:10 1024 30.24 853 25.19 16.9 62.5 38 2.5 36.5
19:15 1024 30.24 853 25.19 17 62.5 37 2.4 36.3
19:20 1024 30.24 853 25.19 16.9 62.4 39 3 37.4
19:25 1024 30.24 853 25.19 16.8 62.2 39 3 37.5
19:30 1024 30.24 853 25.19 16.7 62.1 39 2.6 36.7
19:35 1024 30.24 853 25.19 16.6 61.9 39 2.8 37.1
19:40 1024 30.24 853 25.19 16.5 61.7 40 2.8 37.1
19:45 1024 30.24 853 25.19 16.3 61.4 40 2.7 36.9
19:50 1024 30.24 853 25.19 16.2 61.2 41 2.9 37.2
19:55 1024 30.24 853 25.19 16.1 60.9 41 2.8 37.1
20:00 1024 30.24 853 25.19 15.9 60.6 42 3.1 37.5
20:05 1024 30.24 853 25.19 15.8 60.4 43 3.3 38
20:10 1023 30.21 853 25.19 15.7 60.3 41 2.6 36.7
20:15 1023 30.21 853 25.19 15.8 60.4 41 2.8 37.1
20:20 1023 30.21 853 25.19 15.7 60.3 41 2.4 36.4
20:25 1023 30.21 853 25.19 15.6 60.1 42 2.9 37.2
20:30 1023 30.21 852 25.16 15.5 59.8 46 4 39.1
20:35 1023 30.21 853 25.19 15.3 59.6 42 2.4 36.4
20:40 1023 30.21 852 25.16 15.2 59.4 46 3.6 38.5
20:45 1023 30.21 852 25.16 14.6 58.3 53 5.2 41.3
20:50 1023 30.21 852 25.16 13.7 56.6 56 5 41.1
20:55 1023 30.21 852 25.16 13.1 55.5 57 4.9 40.7
21:00 1023 30.21 853 25.19 12.7 54.9 58 4.7 40.5
21:05 1023 30.21 853 25.19 12.4 54.3 59 4.6 40.2
21:10 1023 30.21 853 25.19 12.2 54 59 4.4 39.9
21:15 1023 30.21 853 25.19 12 53.5 59 4.4 39.9
21:20 1023 30.21 853 25.19 11.6 52.9 62 4.7 40.4
21:25 1023 30.21 853 25.19 11.3 52.3 65 4.9 40.8
21:30 1023 30.21 853 25.19 10.9 51.7 67 5 41
21:35 1023 30.21 852 25.16 10.7 51.2 66 4.6 40.3
21:40 1023 30.21 852 25.16 10.6 51.1 66 4.7 40.4
21:45 1023 30.21 852 25.16 10.5 51 66 4.4 40
21:50 1023 30.21 852 25.16 10.4 50.7 67 4.6 40.3
21:55 1023 30.21 852 25.16 10.1 50.3 68 4.5 40.1
22:00 1023 30.21 852 25.16 10.2 50.3 64 3.8 38.8
22:05 1023 30.21 852 25.16 10.5 50.8 64 4 39.2
22:10 1023 30.21 852 25.16 10.4 50.7 63 3.6 38.5
22:15 1023 30.21 852 25.16 10.4 50.8 63 3.7 38.6
22:20 1023 30.21 852 25.16 10.3 50.6 62 3.5 38.3
22:25 1023 30.21 852 25.16 10.3 50.5 62 3.5 38.2
22:30 1023 30.21 852 25.16 10.4 50.6 62 3.4 38.2
22:35 1023 30.21 852 25.16 10.3 50.5 63 3.5 38.3
22:40 1023 30.21 852 25.16 10.3 50.5 64 3.8 38.8
22:45 1023 30.21 852 25.16 10.2 50.3 64 3.8 38.8
22:50 1023 30.21 852 25.16 9.9 49.9 65 3.7 38.7
22:55 1023 30.21 852 25.16 9.8 49.6 66 3.8 38.9
23:00 1023 30.21 852 25.16 9.6 49.2 66 3.6 38.5
23:05 1023 30.21 852 25.16 9.5 49.1 67 3.6 38.5
23:10 1023 30.21 852 25.16 9.3 48.8 67 3.5 38.3
23:15 1023 30.21 852 25.16 9.3 48.8 68 3.7 38.6
23:20 1023 30.21 852 25.16 9.4 48.9 65 3.3 37.9
23:25 1023 30.21 852 25.16 9.6 49.2 64 3.2 37.7
23:30 1023 30.21 852 25.16 9.7 49.4 64 3.1 37.6
23:35 1023 30.21 852 25.16 9.5 49.1 63 2.9 37.2
23:40 1023 30.21 852 25.16 9.4 48.9 62 2.6 36.8
23:45 1023 30.21 852 25.16 9.3 48.8 62 2.4 36.3
23:50 1023 30.21 852 25.16 9.3 48.7 62 2.3 36.1
23:55 1023 30.21 852 25.16 9.3 48.7 59 1.7 35
24:00 1023 30.21 852 25.16 9.5 49.1 59 1.9 35.5